الصفحة الرئيسية
METAR-TAF:

METAR-TAF

مطار :

القيروان, تونس

دائرة عرض: 35-40N, خط طول: 010-06E, ارتفاع: 60 متر

مراقبة الطقس الحالي

تاريخ ووقت الإصدار 16 دقيقة قبل الساعة 07:00UTC
ريح 3 عقدة من الجنوب/الجنوب الغربي, الاتجاه يتراوح بين الجنوب و الغرب/الجنوب الغربي
درجة الحرارة 12°درجة مئوية
الرطوبة 50%
ضغط 1015 hPa
الرؤية 10 كم أو أكثر
غيوم قليلة على ارتفاع 2300 قدم

METAR: DTTK 220700Z 21003KT 170V240 9999 FEW023 12/02 Q1015

زمن: 08:16 (07:16 UTC)


TAF: مفقودة

أرصاد الطقس والتوقعات من أكثر من 4000 مطار (تقارير الطقس للمطار METAR والتنبؤ بالطقس بالمطارTAF).

المحطات المتاحة هي النقط الصفراء والحمراء على الخريطة.

حرك المؤشر فوق النقطة لمعرفة اسم المحطة.

ثم انقر لمعرفة أرصاد وتوقعات الطقس.

لتغيير الخارطة: اضغط على الأزرار الخضراء مع رمز الصليب الأسود للتكبير. على الزر الأخضر مع شرطة للتصغير، أو على الأسهم الخضراء للخرائط المجاورة.


METAR-TAF: